Time;durP1;ratioP1;P1;durP2;ratioP2;P2;SDS_P1;SDS_P2;PMS_P1;PMS_P2;Temp;Humidity;BMP_temperature;BMP_pressure;BME280_temperature;BME280_humidity;BME280_pressure;Samples;Min_cycle;Max_cycle;Signal;HPM_P1;HPM_P2
2021/09/04 00:01:45;;;;;;;19.27;10.68;;;;;;;;;;5032454;28;20088;-64
2021/09/04 00:04:10;;;;;;;17.50;11.07;;;;;;;;;;5032691;28;20457;-64
2021/09/04 00:06:35;;;;;;;16.15;10.55;;;;;;;;;;5019353;28;20449;-63
2021/09/04 00:09:01;;;;;;;18.05;10.85;;;;;;;;;;5012662;28;20405;-64
2021/09/04 00:11:26;;;;;;;18.45;10.55;;;;;;;;;;5012291;28;20488;-64
2021/09/04 00:13:51;;;;;;;18.95;11.27;;;;;;;;;;5012925;28;20105;-64
2021/09/04 00:16:17;;;;;;;22.73;11.57;;;;;;;;;;5012433;28;20324;-64
2021/09/04 00:18:42;;;;;;;19.48;10.88;;;;;;;;;;5012813;28;20018;-64
2021/09/04 00:21:07;;;;;;;20.83;11.48;;;;;;;;;;5021542;28;20037;-63
2021/09/04 00:23:32;;;;;;;23.33;11.00;;;;;;;;;;5032812;28;20033;-63
2021/09/04 00:25:57;;;;;;;17.40;11.07;;;;;;;;;;5032202;28;20030;-64
2021/09/04 00:28:23;;;;;;;20.17;10.70;;;;;;;;;;5032689;28;20017;-63
2021/09/04 00:30:48;;;;;;;20.48;11.27;;;;;;;;;;5032033;28;20061;-64
2021/09/04 00:33:13;;;;;;;18.30;11.40;;;;;;;;;;5032617;28;20476;-63
2021/09/04 00:35:38;;;;;;;17.73;11.43;;;;;;;;;;5010544;28;20440;-64
2021/09/04 00:38:04;;;;;;;19.92;10.65;;;;;;;;;;5011286;28;20065;-63
2021/09/04 00:40:29;;;;;;;18.42;10.98;;;;;;;;;;5008535;28;20030;-64
2021/09/04 00:42:54;;;;;;;19.27;11.65;;;;;;;;;;4993043;28;20485;-64
2021/09/04 00:45:19;;;;;;;25.13;11.70;;;;;;;;;;4992784;28;20997;-64
2021/09/04 00:47:57;;;;;;;21.10;12.15;;;;;;;;;;4993082;28;20105;-63
2021/09/04 00:50:23;;;;;;;18.70;11.00;;;;;;;;;;4992426;28;20042;-64
2021/09/04 00:52:48;;;;;;;19.73;10.60;;;;;;;;;;5041369;28;20096;-64
2021/09/04 00:55:13;;;;;;;18.85;10.27;;;;;;;;;;5012204;28;20479;-64
2021/09/04 00:57:38;;;;;;;20.20;11.95;;;;;;;;;;5012618;28;20512;-64
2021/09/04 01:00:04;;;;;;;20.77;10.85;;;;;;;;;;5012602;28;20477;-64
2021/09/04 01:02:30;;;;;;;29.85;12.32;;;;;;;;;;5032012;28;20372;-64
2021/09/04 01:04:55;;;;;;;20.83;11.70;;;;;;;;;;5032125;28;20036;-63
2021/09/04 01:07:20;;;;;;;21.67;13.25;;;;;;;;;;5031662;28;20499;-64
2021/09/04 01:09:46;;;;;;;20.98;12.32;;;;;;;;;;5034897;28;20052;-63
2021/09/04 01:12:11;;;;;;;20.70;12.50;;;;;;;;;;5016275;28;20044;-63
2021/09/04 01:14:36;;;;;;;20.17;12.85;;;;;;;;;;5014818;28;20033;-64
2021/09/04 01:17:01;;;;;;;25.45;13.63;;;;;;;;;;5015539;28;20531;-63
2021/09/04 01:19:27;;;;;;;22.42;12.20;;;;;;;;;;5015941;28;20018;-63
2021/09/04 01:21:52;;;;;;;20.98;11.75;;;;;;;;;;5030669;28;20510;-64
2021/09/04 01:24:17;;;;;;;23.25;13.10;;;;;;;;;;5034654;28;20380;-63
2021/09/04 01:26:42;;;;;;;23.73;12.85;;;;;;;;;;5035311;28;20042;-63
2021/09/04 01:29:08;;;;;;;22.85;13.25;;;;;;;;;;5034473;28;20040;-63
2021/09/04 01:31:33;;;;;;;24.80;13.13;;;;;;;;;;5022430;28;20068;-64
2021/09/04 01:33:59;;;;;;;21.70;12.68;;;;;;;;;;5015570;28;20021;-64
2021/09/04 01:36:27;;;;;;;22.55;13.98;;;;;;;;;;5015353;28;20034;-64
2021/09/04 01:38:52;;;;;;;23.48;13.50;;;;;;;;;;5015770;28;20093;-63
2021/09/04 01:41:17;;;;;;;19.30;12.23;;;;;;;;;;5015155;28;20041;-63
2021/09/04 01:43:42;;;;;;;19.85;12.63;;;;;;;;;;5015644;28;20084;-63
2021/09/04 01:46:07;;;;;;;24.85;14.15;;;;;;;;;;5015093;28;20511;-63
2021/09/04 01:48:33;;;;;;;26.85;15.82;;;;;;;;;;5015447;28;20472;-63
2021/09/04 01:50:58;;;;;;;26.05;15.13;;;;;;;;;;5014834;28;20049;-63
2021/09/04 01:53:23;;;;;;;21.30;12.98;;;;;;;;;;5015511;28;20044;-64
2021/09/04 01:55:48;;;;;;;20.40;13.30;;;;;;;;;;5014736;28;20037;-63
2021/09/04 01:58:14;;;;;;;21.45;12.75;;;;;;;;;;5015441;28;20032;-63
2021/09/04 02:00:39;;;;;;;24.52;13.55;;;;;;;;;;5014601;28;20026;-64
2021/09/04 02:03:04;;;;;;;21.38;13.50;;;;;;;;;;5015218;28;20022;-63
2021/09/04 02:05:29;;;;;;;25.55;13.73;;;;;;;;;;5014643;28;20030;-63
2021/09/04 02:07:54;;;;;;;24.95;13.63;;;;;;;;;;5015427;28;20032;-63
2021/09/04 02:10:20;;;;;;;28.77;13.95;;;;;;;;;;5016881;28;20061;-64
2021/09/04 02:12:45;;;;;;;29.27;14.60;;;;;;;;;;5034701;28;20190;-63
2021/09/04 02:15:10;;;;;;;21.88;13.25;;;;;;;;;;5034346;28;20079;-64
2021/09/04 02:17:35;;;;;;;24.88;14.23;;;;;;;;;;5034779;28;20590;-64
2021/09/04 02:20:01;;;;;;;27.35;15.45;;;;;;;;;;5033584;28;20026;-64
2021/09/04 02:22:26;;;;;;;27.88;14.52;;;;;;;;;;5015013;28;20368;-63
2021/09/04 02:24:51;;;;;;;26.73;14.90;;;;;;;;;;5014812;28;20369;-63
2021/09/04 02:27:16;;;;;;;25.42;15.07;;;;;;;;;;5012945;28;20383;-63
2021/09/04 02:29:42;;;;;;;26.75;14.50;;;;;;;;;;5014563;28;20190;-63
2021/09/04 02:32:07;;;;;;;24.70;14.32;;;;;;;;;;5014075;28;20545;-63
2021/09/04 02:34:32;;;;;;;27.58;14.80;;;;;;;;;;5014417;28;20433;-64
2021/09/04 02:36:58;;;;;;;28.40;15.60;;;;;;;;;;5030035;28;20057;-64
2021/09/04 02:39:23;;;;;;;29.48;14.77;;;;;;;;;;5034177;28;20057;-64
2021/09/04 02:41:48;;;;;;;22.67;13.52;;;;;;;;;;5033771;28;20057;-64
2021/09/04 02:44:13;;;;;;;23.58;13.13;;;;;;;;;;5034088;28;20057;-64
2021/09/04 02:46:39;;;;;;;22.08;14.05;;;;;;;;;;5018620;28;20061;-63
2021/09/04 02:49:04;;;;;;;28.95;15.27;;;;;;;;;;5014203;28;20014;-64
2021/09/04 02:51:29;;;;;;;30.20;16.42;;;;;;;;;;5025788;28;20077;-63
2021/09/04 02:53:54;;;;;;;23.67;14.82;;;;;;;;;;5034036;28;20328;-63
2021/09/04 02:56:20;;;;;;;25.30;14.82;;;;;;;;;;5033563;28;20030;-63
2021/09/04 02:58:45;;;;;;;26.58;14.75;;;;;;;;;;5034074;28;20642;-63
2021/09/04 03:01:10;;;;;;;22.40;13.57;;;;;;;;;;5033769;28;20037;-63
2021/09/04 03:03:35;;;;;;;24.95;14.80;;;;;;;;;;5032629;28;20021;-63
2021/09/04 03:06:01;;;;;;;23.35;12.45;;;;;;;;;;5025252;28;20030;-63
2021/09/04 03:08:26;;;;;;;22.02;13.07;;;;;;;;;;5014264;28;20392;-64
2021/09/04 03:10:52;;;;;;;20.73;13.18;;;;;;;;;;5013616;28;20064;-63
2021/09/04 03:13:17;;;;;;;22.27;13.10;;;;;;;;;;5014096;28;20026;-63
2021/09/04 03:15:42;;;;;;;27.30;14.93;;;;;;;;;;5012440;28;20026;-63
2021/09/04 03:18:08;;;;;;;27.15;14.75;;;;;;;;;;5014060;28;20022;-63
2021/09/04 03:20:33;;;;;;;33.35;15.60;;;;;;;;;;5017938;28;20083;-63
2021/09/04 03:22:58;;;;;;;21.23;14.43;;;;;;;;;;5033768;28;20064;-63
2021/09/04 03:25:23;;;;;;;23.20;13.75;;;;;;;;;;5029501;28;20428;-64
2021/09/04 03:27:49;;;;;;;20.60;12.50;;;;;;;;;;5013881;28;20406;-64
2021/09/04 03:30:14;;;;;;;21.33;12.77;;;;;;;;;;5013080;28;20476;-63
2021/09/04 03:32:40;;;;;;;23.88;14.02;;;;;;;;;;5013074;28;20427;-64
2021/09/04 03:35:05;;;;;;;25.13;15.60;;;;;;;;;;5011808;28;20026;-64
2021/09/04 03:37:30;;;;;;;26.77;15.82;;;;;;;;;;5013784;28;20076;-64
2021/09/04 03:39:55;;;;;;;25.05;15.02;;;;;;;;;;5013487;28;20018;-64
2021/09/04 03:42:21;;;;;;;25.40;15.38;;;;;;;;;;5032234;28;20034;-64
2021/09/04 03:44:46;;;;;;;25.15;14.65;;;;;;;;;;5033179;28;20036;-63
2021/09/04 03:47:11;;;;;;;25.92;15.20;;;;;;;;;;5033026;28;20065;-64
2021/09/04 03:49:36;;;;;;;26.70;14.25;;;;;;;;;;5032900;28;20071;-63
2021/09/04 03:52:02;;;;;;;30.98;14.95;;;;;;;;;;5015988;28;20038;-63
2021/09/04 03:54:27;;;;;;;26.48;15.80;;;;;;;;;;5013370;28;20029;-63
2021/09/04 03:56:53;;;;;;;28.77;15.70;;;;;;;;;;5012837;28;20064;-63
2021/09/04 03:59:18;;;;;;;28.40;17.05;;;;;;;;;;5013093;28;20021;-63
2021/09/04 04:01:44;;;;;;;34.60;18.10;;;;;;;;;;5012800;28;20034;-63
2021/09/04 04:04:09;;;;;;;28.00;15.57;;;;;;;;;;5013060;28;20022;-63
2021/09/04 04:06:34;;;;;;;24.67;15.38;;;;;;;;;;5012735;28;20030;-63
2021/09/04 04:08:59;;;;;;;27.17;16.40;;;;;;;;;;5012907;28;20112;-63
2021/09/04 04:11:24;;;;;;;27.55;16.48;;;;;;;;;;5012589;28;20046;-63
2021/09/04 04:13:50;;;;;;;24.38;14.68;;;;;;;;;;5013009;28;20029;-63
2021/09/04 04:16:15;;;;;;;24.73;15.65;;;;;;;;;;5022631;28;20030;-63
2021/09/04 04:18:40;;;;;;;32.13;15.57;;;;;;;;;;5032506;28;20018;-64
2021/09/04 04:21:05;;;;;;;35.55;16.17;;;;;;;;;;5032148;28;20033;-64
2021/09/04 04:23:31;;;;;;;27.52;17.23;;;;;;;;;;5032525;28;20021;-63
2021/09/04 04:25:56;;;;;;;28.77;17.08;;;;;;;;;;5032213;28;20037;-63
2021/09/04 04:28:21;;;;;;;31.52;18.45;;;;;;;;;;5032573;28;20022;-63
2021/09/04 04:30:46;;;;;;;31.83;18.45;;;;;;;;;;5032261;28;20044;-63
2021/09/04 04:33:12;;;;;;;33.88;18.05;;;;;;;;;;5032495;28;20032;-63
2021/09/04 04:35:37;;;;;;;27.23;14.10;;;;;;;;;;5032293;28;20026;-63
2021/09/04 04:38:02;;;;;;;31.15;17.52;;;;;;;;;;5032577;28;20029;-63
2021/09/04 04:40:27;;;;;;;32.60;19.08;;;;;;;;;;5030692;28;20040;-63
2021/09/04 04:42:53;;;;;;;31.77;17.92;;;;;;;;;;5034181;28;20018;-63
2021/09/04 04:45:18;;;;;;;37.65;20.60;;;;;;;;;;5033014;28;20026;-63
2021/09/04 04:47:43;;;;;;;23.35;15.15;;;;;;;;;;5016525;28;20080;-63
2021/09/04 04:50:09;;;;;;;26.70;15.45;;;;;;;;;;5017310;28;20022;-63
2021/09/04 04:52:34;;;;;;;27.38;17.13;;;;;;;;;;5035115;28;20136;-63
2021/09/04 04:54:59;;;;;;;27.55;16.80;;;;;;;;;;5036421;28;20021;-63
2021/09/04 04:57:24;;;;;;;27.17;16.45;;;;;;;;;;5035835;28;20095;-63
2021/09/04 04:59:50;;;;;;;38.30;18.80;;;;;;;;;;5035048;28;20117;-63
2021/09/04 05:02:15;;;;;;;30.40;15.95;;;;;;;;;;5035919;28;20036;-63
2021/09/04 05:04:40;;;;;;;27.55;16.83;;;;;;;;;;5035973;28;20034;-63
2021/09/04 05:07:05;;;;;;;25.88;14.88;;;;;;;;;;5018613;28;20130;-63
2021/09/04 05:09:31;;;;;;;24.83;15.63;;;;;;;;;;5014571;28;20112;-63
2021/09/04 05:11:56;;;;;;;26.98;16.15;;;;;;;;;;5015784;28;20133;-63
2021/09/04 05:14:21;;;;;;;26.42;17.02;;;;;;;;;;5016199;28;20464;-63
2021/09/04 05:16:46;;;;;;;30.90;14.90;;;;;;;;;;5030126;28;20034;-63
2021/09/04 05:19:11;;;;;;;28.70;15.32;;;;;;;;;;5035732;28;20017;-63
2021/09/04 05:21:37;;;;;;;27.50;14.43;;;;;;;;;;5033897;28;20488;-63
2021/09/04 05:24:02;;;;;;;20.77;11.30;;;;;;;;;;5035866;28;20052;-64
2021/09/04 05:26:27;;;;;;;18.75;12.60;;;;;;;;;;5022137;28;20117;-64
2021/09/04 05:28:52;;;;;;;20.15;11.70;;;;;;;;;;5015991;28;20440;-64
2021/09/04 05:31:18;;;;;;;17.33;10.57;;;;;;;;;;5015519;28;20480;-64
2021/09/04 05:33:43;;;;;;;18.23;10.77;;;;;;;;;;5015722;28;20432;-64
2021/09/04 05:36:08;;;;;;;16.40;10.27;;;;;;;;;;5024617;28;20018;-64
2021/09/04 05:38:34;;;;;;;16.70;9.70;;;;;;;;;;5035623;28;20025;-64
2021/09/04 05:40:59;;;;;;;14.88;9.38;;;;;;;;;;5034974;28;20151;-64
2021/09/04 05:43:25;;;;;;;16.73;9.60;;;;;;;;;;5034073;28;20025;-64
2021/09/04 05:45:50;;;;;;;15.43;9.80;;;;;;;;;;5034985;28;20034;-63
2021/09/04 05:48:15;;;;;;;15.65;9.45;;;;;;;;;;5035278;28;20018;-63
2021/09/04 05:50:40;;;;;;;17.23;9.52;;;;;;;;;;5034946;28;20034;-63
2021/09/04 05:53:06;;;;;;;14.27;9.70;;;;;;;;;;5035169;28;20439;-64
2021/09/04 05:55:31;;;;;;;13.23;9.52;;;;;;;;;;5029807;28;20438;-64
2021/09/04 05:57:56;;;;;;;15.90;10.25;;;;;;;;;;5015331;28;20505;-63
2021/09/04 06:00:21;;;;;;;15.75;9.63;;;;;;;;;;5017675;28;20034;-64
2021/09/04 06:02:46;;;;;;;14.10;8.65;;;;;;;;;;5034875;28;20028;-64
2021/09/04 06:05:12;;;;;;;15.93;8.60;;;;;;;;;;5034589;28;20026;-64
2021/09/04 06:07:37;;;;;;;13.80;8.63;;;;;;;;;;5034958;28;20023;-64
2021/09/04 06:10:02;;;;;;;12.65;8.68;;;;;;;;;;5033928;28;20399;-64
2021/09/04 06:12:28;;;;;;;14.13;8.60;;;;;;;;;;5015263;28;20104;-63
2021/09/04 06:14:53;;;;;;;14.80;8.68;;;;;;;;;;5015095;28;20048;-64
2021/09/04 06:17:18;;;;;;;19.43;9.10;;;;;;;;;;5033422;28;20030;-64
2021/09/04 06:19:43;;;;;;;14.15;8.90;;;;;;;;;;5034767;28;20267;-64
2021/09/04 06:22:09;;;;;;;12.40;8.77;;;;;;;;;;5034297;28;20410;-64
2021/09/04 06:24:34;;;;;;;20.23;9.60;;;;;;;;;;5034708;28;20020;-64
2021/09/04 06:26:59;;;;;;;12.57;9.30;;;;;;;;;;5032830;28;20037;-62
2021/09/04 06:29:25;;;;;;;18.10;9.65;;;;;;;;;;5034731;28;20132;-62
2021/09/04 06:31:50;;;;;;;17.42;9.65;;;;;;;;;;5034104;28;20488;-64
2021/09/04 06:34:15;;;;;;;13.32;9.50;;;;;;;;;;5034369;28;20119;-63
2021/09/04 06:36:40;;;;;;;17.60;9.95;;;;;;;;;;5033967;28;20049;-63
2021/09/04 06:39:06;;;;;;;19.90;8.95;;;;;;;;;;5033186;28;20079;-63
2021/09/04 06:41:31;;;;;;;11.25;8.68;;;;;;;;;;5021657;28;20034;-63
2021/09/04 06:43:56;;;;;;;18.35;9.10;;;;;;;;;;5014491;28;20018;-63
2021/09/04 06:46:21;;;;;;;15.07;9.27;;;;;;;;;;5014166;28;20034;-63
2021/09/04 06:48:47;;;;;;;14.57;9.20;;;;;;;;;;5014383;28;20026;-63
2021/09/04 06:51:12;;;;;;;13.73;9.38;;;;;;;;;;5013921;28;20272;-63
2021/09/04 06:53:37;;;;;;;14.57;9.43;;;;;;;;;;5014173;28;20024;-63
2021/09/04 06:56:02;;;;;;;14.75;9.02;;;;;;;;;;5013894;28;20030;-63
2021/09/04 06:58:28;;;;;;;13.15;8.93;;;;;;;;;;5013091;28;20079;-63
2021/09/04 07:00:58;;;;;;;11.90;9.20;;;;;;;;;;5013925;28;20425;-63
2021/09/04 07:03:23;;;;;;;17.83;9.48;;;;;;;;;;5014201;28;20255;-63
2021/09/04 07:05:48;;;;;;;19.40;9.65;;;;;;;;;;5014014;28;20033;-63
2021/09/04 07:08:13;;;;;;;18.63;10.30;;;;;;;;;;5013966;28;20033;-63
2021/09/04 07:10:39;;;;;;;16.98;10.27;;;;;;;;;;5013621;28;20044;-63
2021/09/04 07:13:04;;;;;;;15.60;10.32;;;;;;;;;;5014101;28;20369;-63
2021/09/04 07:15:29;;;;;;;20.02;11.20;;;;;;;;;;5013626;28;20061;-63
2021/09/04 07:17:54;;;;;;;20.55;11.63;;;;;;;;;;5013898;28;20022;-63
2021/09/04 07:20:20;;;;;;;20.92;12.70;;;;;;;;;;5016187;28;20033;-63
2021/09/04 07:22:45;;;;;;;25.80;14.10;;;;;;;;;;5033589;28;20099;-63
2021/09/04 07:25:11;;;;;;;27.38;13.80;;;;;;;;;;5033270;28;20020;-63
2021/09/04 07:27:36;;;;;;;27.25;13.38;;;;;;;;;;5033511;28;20075;-63
2021/09/04 07:30:01;;;;;;;27.88;14.57;;;;;;;;;;5033214;28;20100;-63
2021/09/04 07:32:26;;;;;;;22.27;13.35;;;;;;;;;;5013667;28;20068;-63
2021/09/04 07:34:52;;;;;;;19.60;12.05;;;;;;;;;;5013861;28;20102;-63
2021/09/04 07:37:17;;;;;;;21.60;13.00;;;;;;;;;;5013245;28;20038;-63
2021/09/04 07:39:42;;;;;;;25.02;12.50;;;;;;;;;;5013624;28;20381;-63
2021/09/04 07:42:07;;;;;;;19.27;11.48;;;;;;;;;;5013256;28;20038;-64
2021/09/04 07:44:33;;;;;;;22.80;12.63;;;;;;;;;;5013606;28;20021;-63
2021/09/04 07:46:58;;;;;;;21.15;12.32;;;;;;;;;;5013167;28;20038;-63
2021/09/04 07:49:23;;;;;;;18.00;12.77;;;;;;;;;;5013554;28;20018;-63
2021/09/04 07:51:48;;;;;;;24.08;12.18;;;;;;;;;;5027753;28;20049;-63
2021/09/04 07:54:14;;;;;;;22.45;12.07;;;;;;;;;;5033303;28;20460;-63
2021/09/04 07:56:39;;;;;;;17.87;12.17;;;;;;;;;;5032798;28;20123;-63
2021/09/04 07:59:06;;;;;;;20.40;12.32;;;;;;;;;;5033147;28;20729;-62
2021/09/04 08:01:31;;;;;;;19.73;11.90;;;;;;;;;;5020158;28;20048;-63
2021/09/04 08:03:57;;;;;;;22.70;13.88;;;;;;;;;;5013197;28;20368;-62
2021/09/04 08:06:22;;;;;;;22.98;12.23;;;;;;;;;;5012950;28;20045;-65
2021/09/04 08:08:47;;;;;;;21.52;12.38;;;;;;;;;;5013106;28;20377;-63
2021/09/04 08:11:13;;;;;;;22.10;11.73;;;;;;;;;;5022476;28;20480;-62
2021/09/04 08:13:38;;;;;;;18.08;10.82;;;;;;;;;;5031562;28;20455;-63
2021/09/04 08:16:03;;;;;;;19.48;10.63;;;;;;;;;;5032119;28;20099;-62
2021/09/04 08:18:29;;;;;;;15.23;10.68;;;;;;;;;;5031376;28;20108;-63
2021/09/04 08:20:54;;;;;;;25.33;12.37;;;;;;;;;;5031018;28;20116;-64
2021/09/04 08:23:19;;;;;;;18.17;10.55;;;;;;;;;;5032713;28;20246;-63
2021/09/04 08:25:44;;;;;;;20.48;11.38;;;;;;;;;;5026291;28;20100;-63
2021/09/04 08:28:10;;;;;;;17.85;11.40;;;;;;;;;;5012895;28;20045;-63
2021/09/04 08:30:35;;;;;;;26.77;11.90;;;;;;;;;;5015842;28;20061;-62
2021/09/04 08:33:00;;;;;;;22.83;10.45;;;;;;;;;;5032525;28;20459;-63
2021/09/04 08:35:25;;;;;;;23.73;11.25;;;;;;;;;;5028926;28;20030;-63
2021/09/04 08:37:53;;;;;;;20.20;11.20;;;;;;;;;;5012926;28;20025;-62
2021/09/04 08:40:18;;;;;;;26.13;11.25;;;;;;;;;;5012275;28;20022;-63
2021/09/04 08:42:43;;;;;;;19.42;12.02;;;;;;;;;;5012741;28;20029;-63
2021/09/04 08:45:08;;;;;;;21.02;11.70;;;;;;;;;;5013625;28;20395;-64
2021/09/04 08:47:34;;;;;;;26.73;11.95;;;;;;;;;;5032334;28;20358;-65
2021/09/04 08:49:59;;;;;;;18.55;12.35;;;;;;;;;;5032352;28;20029;-63
2021/09/04 08:52:24;;;;;;;21.38;12.23;;;;;;;;;;5012174;28;20480;-63
2021/09/04 08:54:49;;;;;;;20.80;10.82;;;;;;;;;;5012261;28;20021;-64
2021/09/04 08:57:15;;;;;;;28.33;11.35;;;;;;;;;;5011839;28;20430;-63
2021/09/04 08:59:40;;;;;;;22.70;12.23;;;;;;;;;;5012561;28;20024;-63
2021/09/04 09:02:12;;;;;;;21.23;11.37;;;;;;;;;;5012007;28;20030;-64
2021/09/04 09:04:37;;;;;;;24.27;11.00;;;;;;;;;;5012757;28;20260;-63
2021/09/04 09:07:02;;;;;;;18.15;11.02;;;;;;;;;;5011903;28;20030;-63
2021/09/04 09:09:27;;;;;;;23.77;12.10;;;;;;;;;;5012300;28;20140;-63
2021/09/04 09:11:53;;;;;;;20.02;11.32;;;;;;;;;;5010534;28;20053;-63
2021/09/04 09:14:19;;;;;;;19.92;12.05;;;;;;;;;;5012310;28;20057;-63
2021/09/04 09:16:53;;;;;;;20.25;12.48;;;;;;;;;;5012127;28;20057;-63
2021/09/04 09:19:25;;;;;;;20.42;11.55;;;;;;;;;;5012607;28;20030;-63
2021/09/04 09:21:54;;;;;;;20.63;11.45;;;;;;;;;;5012066;28;20034;-63
2021/09/04 09:24:19;;;;;;;17.83;10.52;;;;;;;;;;5012314;28;20026;-63
2021/09/04 09:26:48;;;;;;;24.33;11.52;;;;;;;;;;5012003;28;20100;-63
2021/09/04 09:29:23;;;;;;;23.63;11.65;;;;;;;;;;5012696;28;20105;-64
2021/09/04 09:31:48;;;;;;;22.40;11.52;;;;;;;;;;5015183;28;20042;-63
2021/09/04 09:34:14;;;;;;;18.88;11.25;;;;;;;;;;5015867;28;20022;-64
2021/09/04 09:36:46;;;;;;;14.70;10.32;;;;;;;;;;5015148;28;20429;-64
2021/09/04 09:39:11;;;;;;;19.70;10.00;;;;;;;;;;5015610;28;20052;-64
2021/09/04 09:41:44;;;;;;;17.33;10.50;;;;;;;;;;5015083;28;20473;-64
2021/09/04 09:44:17;;;;;;;22.05;10.55;;;;;;;;;;5015651;28;20028;-64
2021/09/04 09:46:49;;;;;;;18.75;9.98;;;;;;;;;;5015275;28;20033;-64
2021/09/04 09:49:14;;;;;;;20.75;10.13;;;;;;;;;;5015489;28;20048;-64
2021/09/04 09:51:39;;;;;;;18.52;9.70;;;;;;;;;;5014960;28;20548;-63
2021/09/04 09:54:04;;;;;;;20.17;9.63;;;;;;;;;;5015221;28;20112;-64
2021/09/04 09:56:29;;;;;;;20.00;10.57;;;;;;;;;;5013687;28;20275;-64
2021/09/04 09:58:55;;;;;;;21.27;9.57;;;;;;;;;;5013905;28;20491;-64
2021/09/04 10:01:20;;;;;;;21.83;9.68;;;;;;;;;;5013700;28;20290;-64
2021/09/04 10:03:45;;;;;;;13.63;9.32;;;;;;;;;;5015146;28;20105;-64
2021/09/04 10:06:10;;;;;;;19.27;9.23;;;;;;;;;;5013430;28;20045;-64
2021/09/04 10:08:36;;;;;;;18.90;9.00;;;;;;;;;;5014947;28;20283;-64
2021/09/04 10:11:05;;;;;;;15.70;9.00;;;;;;;;;;5014804;28;20481;-64
2021/09/04 10:13:30;;;;;;;23.85;9.43;;;;;;;;;;5014205;28;20144;-64
2021/09/04 10:15:55;;;;;;;20.23;9.98;;;;;;;;;;5014854;28;20061;-64
2021/09/04 10:18:21;;;;;;;15.50;9.20;;;;;;;;;;5013983;28;20018;-64
2021/09/04 10:20:46;;;;;;;20.65;9.07;;;;;;;;;;5014508;28;20368;-64
2021/09/04 10:23:19;;;;;;;14.02;8.32;;;;;;;;;;5013702;28;20388;-64
2021/09/04 10:25:44;;;;;;;16.35;9.05;;;;;;;;;;5014647;28;20098;-64
2021/09/04 10:28:09;;;;;;;11.70;7.57;;;;;;;;;;5014830;28;20033;-64
2021/09/04 10:30:35;;;;;;;11.98;7.82;;;;;;;;;;5014511;28;20109;-64
2021/09/04 10:33:01;;;;;;;15.45;8.10;;;;;;;;;;5014696;28;20048;-64
2021/09/04 10:35:38;;;;;;;13.50;7.55;;;;;;;;;;5014328;28;20022;-64
2021/09/04 10:38:30;;;;;;;12.10;7.07;;;;;;;;;;5014952;28;20025;-65
2021/09/04 10:41:14;;;;;;;14.82;7.10;;;;;;;;;;5011926;28;20030;-64
2021/09/04 10:43:43;;;;;;;10.23;6.88;;;;;;;;;;5014618;28;20030;-64
2021/09/04 10:46:08;;;;;;;13.45;7.40;;;;;;;;;;5012976;28;20030;-64
2021/09/04 10:48:37;;;;;;;14.73;6.97;;;;;;;;;;5014542;28;20018;-64
2021/09/04 10:51:03;;;;;;;8.50;6.50;;;;;;;;;;5013563;28;20030;-64
2021/09/04 10:53:47;;;;;;;10.00;6.70;;;;;;;;;;5014506;28;20033;-64
2021/09/04 10:56:18;;;;;;;9.32;6.93;;;;;;;;;;5014055;28;20116;-64
2021/09/04 10:58:43;;;;;;;10.43;7.03;;;;;;;;;;5014304;28;20025;-64
2021/09/04 11:01:10;;;;;;;11.95;6.85;;;;;;;;;;5013890;28;20034;-64
2021/09/04 11:03:42;;;;;;;10.63;6.82;;;;;;;;;;5013115;28;20022;-64
2021/09/04 11:06:07;;;;;;;8.68;6.10;;;;;;;;;;5013762;28;20026;-64
2021/09/04 11:08:33;;;;;;;8.15;6.25;;;;;;;;;;5014047;28;20055;-64
2021/09/04 11:11:15;;;;;;;9.00;6.10;;;;;;;;;;5013578;28;20040;-64
2021/09/04 11:13:44;;;;;;;10.23;5.80;;;;;;;;;;5014835;28;20025;-65
2021/09/04 11:16:28;;;;;;;9.50;6.60;;;;;;;;;;5012997;28;20026;-65
2021/09/04 11:18:54;;;;;;;12.48;6.32;;;;;;;;;;5014034;28;20380;-64
2021/09/04 11:21:19;;;;;;;9.63;5.93;;;;;;;;;;5013551;28;20038;-64
2021/09/04 11:23:44;;;;;;;8.60;5.65;;;;;;;;;;5013954;28;20424;-64
2021/09/04 11:26:10;;;;;;;9.43;5.97;;;;;;;;;;5013839;28;20441;-65
2021/09/04 11:28:35;;;;;;;8.43;5.88;;;;;;;;;;5014001;28;20555;-65
2021/09/04 11:31:00;;;;;;;9.13;5.80;;;;;;;;;;5013346;28;20284;-65
2021/09/04 11:33:25;;;;;;;9.48;6.55;;;;;;;;;;5013725;28;20040;-64
2021/09/04 11:35:51;;;;;;;12.63;5.60;;;;;;;;;;5013573;28;20061;-64
2021/09/04 11:38:16;;;;;;;8.18;5.70;;;;;;;;;;5013555;28;20117;-64
2021/09/04 11:40:45;;;;;;;9.40;6.20;;;;;;;;;;4995523;28;20030;-65
2021/09/04 11:43:10;;;;;;;9.65;6.65;;;;;;;;;;5013707;28;20034;-64
2021/09/04 11:45:35;;;;;;;9.98;6.40;;;;;;;;;;5012925;28;20472;-65
2021/09/04 11:48:07;;;;;;;8.32;5.97;;;;;;;;;;5012253;28;20022;-64
2021/09/04 11:50:33;;;;;;;11.25;6.53;;;;;;;;;;5012863;28;20452;-65
2021/09/04 11:52:58;;;;;;;12.52;6.03;;;;;;;;;;5011731;28;20022;-64
2021/09/04 11:55:24;;;;;;;9.15;5.57;;;;;;;;;;5012385;28;20472;-65
2021/09/04 11:57:53;;;;;;;17.42;6.80;;;;;;;;;;5012609;28;20018;-64
2021/09/04 12:00:20;;;;;;;9.55;5.88;;;;;;;;;;5011590;28;20021;-64
2021/09/04 12:02:46;;;;;;;9.13;6.25;;;;;;;;;;5013917;28;20022;-64
2021/09/04 12:05:12;;;;;;;9.52;6.50;;;;;;;;;;5011803;28;20030;-64
2021/09/04 12:07:38;;;;;;;8.75;6.05;;;;;;;;;;5013703;28;20089;-64
2021/09/04 12:10:04;;;;;;;8.45;6.07;;;;;;;;;;5011474;28;20523;-66
2021/09/04 12:12:29;;;;;;;8.35;5.95;;;;;;;;;;5011998;28;20029;-65
2021/09/04 12:14:56;;;;;;;11.75;6.22;;;;;;;;;;5013543;28;20045;-63
2021/09/04 12:17:21;;;;;;;12.63;6.72;;;;;;;;;;5011620;28;20037;-65
2021/09/04 12:19:47;;;;;;;8.88;6.00;;;;;;;;;;5013204;28;20087;-65
2021/09/04 12:22:12;;;;;;;11.27;6.50;;;;;;;;;;5012714;28;20120;-63
2021/09/04 12:24:38;;;;;;;10.60;6.65;;;;;;;;;;5012977;28;20017;-64
2021/09/04 12:27:03;;;;;;;9.35;5.95;;;;;;;;;;5011323;28;20119;-65
2021/09/04 12:29:29;;;;;;;8.82;6.28;;;;;;;;;;5011907;28;20022;-64
2021/09/04 12:32:04;;;;;;;8.98;6.53;;;;;;;;;;5012440;28;20457;-65
2021/09/04 12:34:29;;;;;;;11.70;6.55;;;;;;;;;;5012807;28;20117;-65
2021/09/04 12:36:55;;;;;;;11.65;6.63;;;;;;;;;;5012424;28;20076;-63
2021/09/04 12:39:22;;;;;;;9.57;6.60;;;;;;;;;;5011574;28;20029;-65
2021/09/04 12:41:47;;;;;;;9.18;5.93;;;;;;;;;;5012237;28;20048;-65
2021/09/04 12:44:14;;;;;;;9.45;6.38;;;;;;;;;;5012724;28;20104;-65
2021/09/04 12:46:45;;;;;;;9.60;6.20;;;;;;;;;;5012416;28;20109;-64
2021/09/04 12:49:17;;;;;;;9.18;5.90;;;;;;;;;;5012598;28;20021;-65
2021/09/04 12:51:43;;;;;;;11.25;5.72;;;;;;;;;;5011674;28;20046;-65
2021/09/04 12:54:08;;;;;;;10.55;5.60;;;;;;;;;;5012831;28;20025;-65
2021/09/04 12:56:37;;;;;;;12.40;5.75;;;;;;;;;;5012212;28;20429;-63
2021/09/04 12:59:02;;;;;;;9.77;5.82;;;;;;;;;;5012632;28;20022;-63
2021/09/04 13:01:28;;;;;;;8.52;5.82;;;;;;;;;;5012106;28;20034;-64
2021/09/04 13:03:53;;;;;;;9.27;5.85;;;;;;;;;;5012939;28;20457;-64
2021/09/04 13:06:18;;;;;;;10.25;6.50;;;;;;;;;;5016061;28;20054;-64
2021/09/04 13:08:43;;;;;;;8.65;6.03;;;;;;;;;;5016334;28;20485;-64
2021/09/04 13:11:09;;;;;;;9.32;5.68;;;;;;;;;;5015910;28;20550;-64
2021/09/04 13:13:40;;;;;;;8.18;5.53;;;;;;;;;;5016463;28;20045;-64
2021/09/04 13:16:05;;;;;;;8.35;5.43;;;;;;;;;;5015658;28;20026;-64
2021/09/04 13:18:31;;;;;;;10.35;5.47;;;;;;;;;;5016547;28;20141;-64
2021/09/04 13:20:56;;;;;;;8.98;5.88;;;;;;;;;;5015998;28;20038;-67
2021/09/04 13:23:21;;;;;;;8.40;5.45;;;;;;;;;;5015939;28;20029;-65
2021/09/04 13:25:46;;;;;;;11.05;5.47;;;;;;;;;;5015364;28;20030;-65
2021/09/04 13:28:11;;;;;;;8.70;6.07;;;;;;;;;;5015829;28;20026;-66
2021/09/04 13:30:37;;;;;;;9.35;5.82;;;;;;;;;;5015196;28;20034;-65
2021/09/04 13:33:02;;;;;;;10.77;5.80;;;;;;;;;;5015624;28;20033;-65
2021/09/04 13:35:29;;;;;;;10.85;5.28;;;;;;;;;;5015189;28;20275;-65
2021/09/04 13:37:54;;;;;;;13.13;5.35;;;;;;;;;;5015440;28;20049;-65
2021/09/04 13:40:19;;;;;;;9.60;5.57;;;;;;;;;;5014666;28;20041;-65
2021/09/04 13:42:45;;;;;;;8.27;5.75;;;;;;;;;;5015546;28;20049;-65
2021/09/04 13:45:10;;;;;;;9.02;5.60;;;;;;;;;;5014902;28;20022;-65
2021/09/04 13:47:35;;;;;;;8.15;5.75;;;;;;;;;;5015788;28;20022;-65
2021/09/04 13:50:00;;;;;;;10.40;5.30;;;;;;;;;;5015139;28;20528;-65
2021/09/04 13:52:26;;;;;;;9.45;6.00;;;;;;;;;;5015385;28;20396;-66
2021/09/04 13:54:51;;;;;;;9.07;5.60;;;;;;;;;;5015401;28;20014;-66
2021/09/04 13:57:17;;;;;;;7.85;5.68;;;;;;;;;;5014529;28;20140;-65
2021/09/04 13:59:42;;;;;;;8.27;5.00;;;;;;;;;;5015209;28;20029;-65
2021/09/04 14:02:07;;;;;;;8.77;5.53;;;;;;;;;;5014810;28;20034;-65
2021/09/04 14:04:32;;;;;;;10.35;5.30;;;;;;;;;;5015386;28;20029;-66
2021/09/04 14:06:58;;;;;;;7.45;5.63;;;;;;;;;;5014874;28;20117;-65
2021/09/04 14:09:23;;;;;;;8.20;5.47;;;;;;;;;;5015052;28;20143;-65
2021/09/04 14:11:48;;;;;;;8.77;5.22;;;;;;;;;;5014701;28;20029;-66
2021/09/04 14:14:13;;;;;;;7.93;5.28;;;;;;;;;;5015099;28;20025;-65
2021/09/04 14:16:38;;;;;;;8.70;5.60;;;;;;;;;;5013725;28;20057;-65